sensor_id;sensor_type;location;lat;lon;timestamp;pressure;altitude;pressure_sealevel;temperature;humidity
73422;BME280;61637;47.760;-122.022;2023-07-13T00:00:01;101591.7;;;24.2;53.0
73422;BME280;61637;47.760;-122.022;2023-07-13T00:02:01;101591.7;;;24.2;55.0
73422;BME280;61637;47.760;-122.022;2023-07-13T00:04:01;101591.7;;;24.1;56.0
73422;BME280;61637;47.760;-122.022;2023-07-13T00:06:01;101591.7;;;24.1;56.0
73422;BME280;61637;47.760;-122.022;2023-07-13T00:08:01;101591.7;;;24.0;57.0
73422;BME280;61637;47.760;-122.022;2023-07-13T00:10:01;101591.7;;;23.9;57.0
73422;BME280;61637;47.760;-122.022;2023-07-13T00:12:01;101591.7;;;23.8;57.0
73422;BME280;61637;47.760;-122.022;2023-07-13T00:14:01;101591.7;;;23.8;58.0
73422;BME280;61637;47.760;-122.022;2023-07-13T00:16:01;101591.7;;;23.6;58.0
73422;BME280;61637;47.760;-122.022;2023-07-13T00:18:01;101591.7;;;23.6;58.0
73422;BME280;61637;47.760;-122.022;2023-07-13T00:20:01;101591.7;;;23.4;58.0
73422;BME280;61637;47.760;-122.022;2023-07-13T00:22:01;101591.7;;;23.2;59.0
73422;BME280;61637;47.760;-122.022;2023-07-13T00:24:01;101591.7;;;23.2;60.0
73422;BME280;61637;47.760;-122.022;2023-07-13T00:26:01;101591.7;;;23.1;60.0
73422;BME280;61637;47.760;-122.022;2023-07-13T00:28:01;101591.7;;;22.9;60.0
73422;BME280;61637;47.760;-122.022;2023-07-13T00:30:01;101591.7;;;22.8;60.0
73422;BME280;61637;47.760;-122.022;2023-07-13T00:32:01;101930.339;;;22.7;61.0
73422;BME280;61637;47.760;-122.022;2023-07-13T00:34:01;101930.339;;;22.6;61.0
73422;BME280;61637;47.760;-122.022;2023-07-13T00:36:01;101930.339;;;22.4;61.0
73422;BME280;61637;47.760;-122.022;2023-07-13T00:38:01;101930.339;;;22.3;62.0
73422;BME280;61637;47.760;-122.022;2023-07-13T00:40:01;101930.339;;;22.3;62.0
73422;BME280;61637;47.760;-122.022;2023-07-13T00:42:01;101930.339;;;22.3;62.0
73422;BME280;61637;47.760;-122.022;2023-07-13T00:44:01;101930.339;;;22.2;63.0
73422;BME280;61637;47.760;-122.022;2023-07-13T00:46:10;101930.339;;;22.1;63.0
73422;BME280;61637;47.760;-122.022;2023-07-13T00:48:01;101930.339;;;21.9;64.0
73422;BME280;61637;47.760;-122.022;2023-07-13T00:50:01;101930.339;;;21.9;64.0
73422;BME280;61637;47.760;-122.022;2023-07-13T00:52:02;101930.339;;;21.8;64.0
73422;BME280;61637;47.760;-122.022;2023-07-13T00:54:03;101930.339;;;21.7;65.0
73422;BME280;61637;47.760;-122.022;2023-07-13T00:56:01;101930.339;;;21.7;65.0
73422;BME280;61637;47.760;-122.022;2023-07-13T00:58:01;101930.339;;;21.7;64.0
73422;BME280;61637;47.760;-122.022;2023-07-13T01:00:03;101930.339;;;21.7;64.0
73422;BME280;61637;47.760;-122.022;2023-07-13T01:02:01;101930.339;;;21.7;65.0
73422;BME280;61637;47.760;-122.022;2023-07-13T01:04:01;101930.339;;;21.6;64.0
73422;BME280;61637;47.760;-122.022;2023-07-13T01:06:01;101930.339;;;21.3;64.0
73422;BME280;61637;47.760;-122.022;2023-07-13T01:08:01;101930.339;;;21.1;65.0
73422;BME280;61637;47.760;-122.022;2023-07-13T01:10:01;101930.339;;;20.9;66.0
73422;BME280;61637;47.760;-122.022;2023-07-13T01:12:01;101930.339;;;20.9;66.0
73422;BME280;61637;47.760;-122.022;2023-07-13T01:14:01;101930.339;;;20.8;65.0
73422;BME280;61637;47.760;-122.022;2023-07-13T01:16:02;101930.339;;;20.6;66.0
73422;BME280;61637;47.760;-122.022;2023-07-13T01:18:01;101930.339;;;20.6;66.0
73422;BME280;61637;47.760;-122.022;2023-07-13T01:20:01;101930.339;;;20.6;67.0
73422;BME280;61637;47.760;-122.022;2023-07-13T01:22:01;101930.339;;;20.6;66.0
73422;BME280;61637;47.760;-122.022;2023-07-13T01:24:01;101930.339;;;20.6;66.0
73422;BME280;61637;47.760;-122.022;2023-07-13T01:26:01;101930.339;;;20.5;67.0
73422;BME280;61637;47.760;-122.022;2023-07-13T01:28:01;101930.339;;;20.5;67.0
73422;BME280;61637;47.760;-122.022;2023-07-13T01:30:01;101930.339;;;20.5;67.0
73422;BME280;61637;47.760;-122.022;2023-07-13T01:32:01;101930.339;;;20.5;67.0
73422;BME280;61637;47.760;-122.022;2023-07-13T01:34:01;101930.339;;;20.6;67.0
73422;BME280;61637;47.760;-122.022;2023-07-13T01:36:01;101930.339;;;20.8;67.0
73422;BME280;61637;47.760;-122.022;2023-07-13T01:38:01;101930.339;;;20.9;67.0
73422;BME280;61637;47.760;-122.022;2023-07-13T01:40:01;101930.339;;;21.1;67.0
73422;BME280;61637;47.760;-122.022;2023-07-13T01:42:01;101930.339;;;21.1;66.0
73422;BME280;61637;47.760;-122.022;2023-07-13T01:44:01;101930.339;;;21.2;66.0
73422;BME280;61637;47.760;-122.022;2023-07-13T01:46:01;101930.339;;;21.1;65.0
73422;BME280;61637;47.760;-122.022;2023-07-13T01:48:01;101930.339;;;21.1;66.0
73422;BME280;61637;47.760;-122.022;2023-07-13T01:50:01;101930.339;;;21.1;66.0
73422;BME280;61637;47.760;-122.022;2023-07-13T01:52:01;101930.339;;;21.1;66.0
73422;BME280;61637;47.760;-122.022;2023-07-13T01:54:01;101930.339;;;21.1;66.0
73422;BME280;61637;47.760;-122.022;2023-07-13T01:56:01;101930.339;;;20.9;66.0
73422;BME280;61637;47.760;-122.022;2023-07-13T01:58:01;101930.339;;;20.8;66.0
73422;BME280;61637;47.760;-122.022;2023-07-13T02:00:02;101930.339;;;20.7;67.0
73422;BME280;61637;47.760;-122.022;2023-07-13T02:02:01;101930.339;;;20.6;67.0
73422;BME280;61637;47.760;-122.022;2023-07-13T02:04:01;101930.339;;;20.6;67.0
73422;BME280;61637;47.760;-122.022;2023-07-13T02:06:01;101930.339;;;20.4;68.0
73422;BME280;61637;47.760;-122.022;2023-07-13T02:08:01;101930.339;;;20.4;67.0
73422;BME280;61637;47.760;-122.022;2023-07-13T02:10:01;101930.339;;;20.3;67.0
73422;BME280;61637;47.760;-122.022;2023-07-13T02:12:01;101930.339;;;20.2;67.0
73422;BME280;61637;47.760;-122.022;2023-07-13T02:14:01;101930.339;;;20.1;68.0
73422;BME280;61637;47.760;-122.022;2023-07-13T02:16:01;101930.339;;;20.0;68.0
73422;BME280;61637;47.760;-122.022;2023-07-13T02:18:01;101930.339;;;19.9;68.0
73422;BME280;61637;47.760;-122.022;2023-07-13T02:20:01;101930.339;;;19.8;68.0
73422;BME280;61637;47.760;-122.022;2023-07-13T02:22:01;101930.339;;;19.8;68.0
73422;BME280;61637;47.760;-122.022;2023-07-13T02:24:01;101930.339;;;19.8;68.0
73422;BME280;61637;47.760;-122.022;2023-07-13T02:26:01;101930.339;;;19.8;68.0
73422;BME280;61637;47.760;-122.022;2023-07-13T02:28:01;101930.339;;;19.7;69.0
73422;BME280;61637;47.760;-122.022;2023-07-13T02:30:01;101930.339;;;19.7;68.0
73422;BME280;61637;47.760;-122.022;2023-07-13T02:32:01;101930.339;;;19.6;69.0
73422;BME280;61637;47.760;-122.022;2023-07-13T02:34:01;101930.339;;;19.6;69.0
73422;BME280;61637;47.760;-122.022;2023-07-13T02:36:01;101930.339;;;19.5;70.0
73422;BME280;61637;47.760;-122.022;2023-07-13T02:38:01;101930.339;;;19.5;69.0
73422;BME280;61637;47.760;-122.022;2023-07-13T02:40:01;101930.339;;;19.4;69.0
73422;BME280;61637;47.760;-122.022;2023-07-13T02:42:01;101930.339;;;19.4;69.0
73422;BME280;61637;47.760;-122.022;2023-07-13T02:44:01;101930.339;;;19.4;70.0
73422;BME280;61637;47.760;-122.022;2023-07-13T02:46:01;101930.339;;;19.3;69.0
73422;BME280;61637;47.760;-122.022;2023-07-13T02:48:01;101930.339;;;19.3;70.0
73422;BME280;61637;47.760;-122.022;2023-07-13T02:50:01;101930.339;;;19.3;71.0
73422;BME280;61637;47.760;-122.022;2023-07-13T02:52:01;101930.339;;;19.2;71.0
73422;BME280;61637;47.760;-122.022;2023-07-13T02:54:01;101930.339;;;19.2;70.0
73422;BME280;61637;47.760;-122.022;2023-07-13T02:56:01;101930.339;;;19.1;71.0
73422;BME280;61637;47.760;-122.022;2023-07-13T02:58:01;101930.339;;;19.0;71.0
73422;BME280;61637;47.760;-122.022;2023-07-13T03:00:01;101930.339;;;18.9;72.0
73422;BME280;61637;47.760;-122.022;2023-07-13T03:02:01;101930.339;;;18.8;72.0
73422;BME280;61637;47.760;-122.022;2023-07-13T03:04:01;101930.339;;;18.7;72.0
73422;BME280;61637;47.760;-122.022;2023-07-13T03:06:01;101930.339;;;18.7;72.0
73422;BME280;61637;47.760;-122.022;2023-07-13T03:08:01;101930.339;;;18.6;73.0
73422;BME280;61637;47.760;-122.022;2023-07-13T03:10:01;101930.339;;;18.6;73.0
73422;BME280;61637;47.760;-122.022;2023-07-13T03:12:01;101930.339;;;18.5;73.0
73422;BME280;61637;47.760;-122.022;2023-07-13T03:14:01;101930.339;;;18.4;74.0
73422;BME280;61637;47.760;-122.022;2023-07-13T03:16:01;101930.339;;;18.4;74.0
73422;BME280;61637;47.760;-122.022;2023-07-13T03:18:01;101930.339;;;18.4;74.0
73422;BME280;61637;47.760;-122.022;2023-07-13T03:20:01;101930.339;;;18.4;74.0
73422;BME280;61637;47.760;-122.022;2023-07-13T03:22:01;101930.339;;;18.3;74.0
73422;BME280;61637;47.760;-122.022;2023-07-13T03:24:01;101930.339;;;18.3;74.0
73422;BME280;61637;47.760;-122.022;2023-07-13T03:26:01;101930.339;;;18.3;74.0
73422;BME280;61637;47.760;-122.022;2023-07-13T03:28:01;101930.339;;;18.2;74.0
73422;BME280;61637;47.760;-122.022;2023-07-13T03:30:01;101930.339;;;18.2;74.0
73422;BME280;61637;47.760;-122.022;2023-07-13T03:32:01;101930.339;;;18.2;75.0
73422;BME280;61637;47.760;-122.022;2023-07-13T03:34:01;101930.339;;;18.2;74.0
73422;BME280;61637;47.760;-122.022;2023-07-13T03:36:01;101930.339;;;18.2;74.0
73422;BME280;61637;47.760;-122.022;2023-07-13T03:38:01;101930.339;;;18.1;74.0
73422;BME280;61637;47.760;-122.022;2023-07-13T03:40:01;101930.339;;;18.1;74.0
73422;BME280;61637;47.760;-122.022;2023-07-13T03:42:01;101930.339;;;18.0;74.0
73422;BME280;61637;47.760;-122.022;2023-07-13T03:44:01;101930.339;;;17.9;74.0
73422;BME280;61637;47.760;-122.022;2023-07-13T03:46:01;101930.339;;;17.9;74.0
73422;BME280;61637;47.760;-122.022;2023-07-13T03:48:01;101930.339;;;17.9;74.0
73422;BME280;61637;47.760;-122.022;2023-07-13T03:50:01;101930.339;;;17.8;75.0
73422;BME280;61637;47.760;-122.022;2023-07-13T03:52:01;101930.339;;;17.8;75.0
73422;BME280;61637;47.760;-122.022;2023-07-13T03:54:01;101930.339;;;17.8;75.0
73422;BME280;61637;47.760;-122.022;2023-07-13T03:56:01;101930.339;;;17.8;75.0
73422;BME280;61637;47.760;-122.022;2023-07-13T04:00:01;101930.339;;;17.7;75.0
73422;BME280;61637;47.760;-122.022;2023-07-13T04:02:01;101930.339;;;17.6;75.0
73422;BME280;61637;47.760;-122.022;2023-07-13T04:04:01;101930.339;;;17.6;76.0
73422;BME280;61637;47.760;-122.022;2023-07-13T04:06:01;101930.339;;;17.6;76.0
73422;BME280;61637;47.760;-122.022;2023-07-13T04:08:01;101930.339;;;17.5;76.0
73422;BME280;61637;47.760;-122.022;2023-07-13T04:10:01;101930.339;;;17.5;75.0
73422;BME280;61637;47.760;-122.022;2023-07-13T04:12:01;101930.339;;;17.4;75.0
73422;BME280;61637;47.760;-122.022;2023-07-13T04:14:01;101930.339;;;17.4;76.0
73422;BME280;61637;47.760;-122.022;2023-07-13T04:16:01;101930.339;;;17.3;75.0
73422;BME280;61637;47.760;-122.022;2023-07-13T04:18:01;101930.339;;;17.3;76.0
73422;BME280;61637;47.760;-122.022;2023-07-13T04:20:01;101930.339;;;17.2;76.0
73422;BME280;61637;47.760;-122.022;2023-07-13T04:22:01;101930.339;;;17.1;75.0
73422;BME280;61637;47.760;-122.022;2023-07-13T04:24:01;101930.339;;;17.1;76.0
73422;BME280;61637;47.760;-122.022;2023-07-13T04:26:01;101930.339;;;17.0;75.0
73422;BME280;61637;47.760;-122.022;2023-07-13T04:28:01;101930.339;;;16.9;75.0
73422;BME280;61637;47.760;-122.022;2023-07-13T04:30:01;101930.339;;;16.8;75.0
73422;BME280;61637;47.760;-122.022;2023-07-13T04:32:01;101930.339;;;16.8;76.0
73422;BME280;61637;47.760;-122.022;2023-07-13T04:34:01;101930.339;;;16.7;76.0
73422;BME280;61637;47.760;-122.022;2023-07-13T04:36:01;101930.339;;;16.7;76.0
73422;BME280;61637;47.760;-122.022;2023-07-13T04:38:01;101930.339;;;16.6;76.0
73422;BME280;61637;47.760;-122.022;2023-07-13T04:40:01;101930.339;;;16.6;76.0
73422;BME280;61637;47.760;-122.022;2023-07-13T04:42:01;101930.339;;;16.4;76.0
73422;BME280;61637;47.760;-122.022;2023-07-13T04:44:01;101930.339;;;16.4;76.0
73422;BME280;61637;47.760;-122.022;2023-07-13T04:46:03;101930.339;;;16.3;76.0
73422;BME280;61637;47.760;-122.022;2023-07-13T04:48:01;101930.339;;;16.2;76.0
73422;BME280;61637;47.760;-122.022;2023-07-13T04:50:01;101930.339;;;16.2;76.0
73422;BME280;61637;47.760;-122.022;2023-07-13T04:52:01;101930.339;;;16.1;76.0
73422;BME280;61637;47.760;-122.022;2023-07-13T04:54:01;101930.339;;;16.0;76.0
73422;BME280;61637;47.760;-122.022;2023-07-13T04:56:01;101930.339;;;15.9;77.0
73422;BME280;61637;47.760;-122.022;2023-07-13T04:58:01;101930.339;;;15.8;77.0
73422;BME280;61637;47.760;-122.022;2023-07-13T05:00:01;101930.339;;;15.8;77.0
73422;BME280;61637;47.760;-122.022;2023-07-13T05:02:01;101930.339;;;15.7;77.0
73422;BME280;61637;47.760;-122.022;2023-07-13T05:04:01;101930.339;;;15.7;78.0
73422;BME280;61637;47.760;-122.022;2023-07-13T05:06:02;101930.339;;;15.7;78.0
73422;BME280;61637;47.760;-122.022;2023-07-13T05:08:01;101930.339;;;15.6;78.0
73422;BME280;61637;47.760;-122.022;2023-07-13T05:10:01;101930.339;;;15.6;78.0
73422;BME280;61637;47.760;-122.022;2023-07-13T05:12:01;101930.339;;;15.5;78.0
73422;BME280;61637;47.760;-122.022;2023-07-13T05:14:01;101930.339;;;15.5;78.0
73422;BME280;61637;47.760;-122.022;2023-07-13T05:16:01;101930.339;;;15.4;78.0
73422;BME280;61637;47.760;-122.022;2023-07-13T05:18:01;101930.339;;;15.4;78.0
73422;BME280;61637;47.760;-122.022;2023-07-13T05:20:01;101930.339;;;15.4;78.0
73422;BME280;61637;47.760;-122.022;2023-07-13T05:22:01;101930.339;;;15.4;78.0
73422;BME280;61637;47.760;-122.022;2023-07-13T05:24:01;101930.339;;;15.4;78.0
73422;BME280;61637;47.760;-122.022;2023-07-13T05:26:01;101930.339;;;15.3;78.0
73422;BME280;61637;47.760;-122.022;2023-07-13T05:28:01;101930.339;;;15.3;78.0
73422;BME280;61637;47.760;-122.022;2023-07-13T05:30:01;101930.339;;;15.3;79.0
73422;BME280;61637;47.760;-122.022;2023-07-13T05:32:01;101930.339;;;15.3;79.0
73422;BME280;61637;47.760;-122.022;2023-07-13T05:34:01;101930.339;;;15.2;79.0
73422;BME280;61637;47.760;-122.022;2023-07-13T05:36:01;101930.339;;;15.2;79.0
73422;BME280;61637;47.760;-122.022;2023-07-13T05:38:01;101930.339;;;15.2;79.0
73422;BME280;61637;47.760;-122.022;2023-07-13T05:40:01;101930.339;;;15.1;79.0
73422;BME280;61637;47.760;-122.022;2023-07-13T05:42:01;101930.339;;;15.1;79.0
73422;BME280;61637;47.760;-122.022;2023-07-13T05:44:01;101930.339;;;15.1;79.0
73422;BME280;61637;47.760;-122.022;2023-07-13T05:46:01;101930.339;;;15.1;79.0
73422;BME280;61637;47.760;-122.022;2023-07-13T05:48:01;101930.339;;;15.1;79.0
73422;BME280;61637;47.760;-122.022;2023-07-13T05:50:01;101930.339;;;15.0;79.0
73422;BME280;61637;47.760;-122.022;2023-07-13T05:52:01;101930.339;;;14.9;79.0
73422;BME280;61637;47.760;-122.022;2023-07-13T05:54:01;101930.339;;;14.9;79.0
73422;BME280;61637;47.760;-122.022;2023-07-13T05:56:01;101930.339;;;14.9;80.0
73422;BME280;61637;47.760;-122.022;2023-07-13T05:58:01;101930.339;;;14.8;80.0
73422;BME280;61637;47.760;-122.022;2023-07-13T06:00:01;101930.339;;;14.8;80.0
73422;BME280;61637;47.760;-122.022;2023-07-13T06:02:01;101930.339;;;14.8;80.0
73422;BME280;61637;47.760;-122.022;2023-07-13T06:04:01;101930.339;;;14.8;80.0
73422;BME280;61637;47.760;-122.022;2023-07-13T06:06:01;101930.339;;;14.7;80.0
73422;BME280;61637;47.760;-122.022;2023-07-13T06:08:01;101930.339;;;14.7;80.0
73422;BME280;61637;47.760;-122.022;2023-07-13T06:10:01;101930.339;;;14.6;81.0
73422;BME280;61637;47.760;-122.022;2023-07-13T06:12:01;101930.339;;;14.6;81.0
73422;BME280;61637;47.760;-122.022;2023-07-13T06:14:01;101930.339;;;14.5;81.0
73422;BME280;61637;47.760;-122.022;2023-07-13T06:16:01;101930.339;;;14.4;81.0
73422;BME280;61637;47.760;-122.022;2023-07-13T06:18:01;101930.339;;;14.4;81.0
73422;BME280;61637;47.760;-122.022;2023-07-13T06:20:01;101930.339;;;14.4;81.0
73422;BME280;61637;47.760;-122.022;2023-07-13T06:22:01;101930.339;;;14.3;82.0
73422;BME280;61637;47.760;-122.022;2023-07-13T06:24:01;101930.339;;;14.3;82.0
73422;BME280;61637;47.760;-122.022;2023-07-13T06:26:01;101930.339;;;14.2;82.0
73422;BME280;61637;47.760;-122.022;2023-07-13T06:28:01;101930.339;;;14.2;82.0
73422;BME280;61637;47.760;-122.022;2023-07-13T06:30:01;101930.339;;;14.2;82.0
73422;BME280;61637;47.760;-122.022;2023-07-13T06:32:01;101930.339;;;14.2;82.0
73422;BME280;61637;47.760;-122.022;2023-07-13T06:34:01;101930.339;;;14.1;83.0
73422;BME280;61637;47.760;-122.022;2023-07-13T06:36:01;101930.339;;;14.1;83.0
73422;BME280;61637;47.760;-122.022;2023-07-13T06:38:01;101930.339;;;14.0;83.0
73422;BME280;61637;47.760;-122.022;2023-07-13T06:40:01;101930.339;;;14.0;83.0
73422;BME280;61637;47.760;-122.022;2023-07-13T06:42:01;101930.339;;;14.0;83.0
73422;BME280;61637;47.760;-122.022;2023-07-13T06:44:01;101930.339;;;14.0;83.0
73422;BME280;61637;47.760;-122.022;2023-07-13T06:46:01;101930.339;;;14.0;83.0
73422;BME280;61637;47.760;-122.022;2023-07-13T06:48:01;101930.339;;;14.0;83.0
73422;BME280;61637;47.760;-122.022;2023-07-13T06:50:01;101930.339;;;13.9;83.0
73422;BME280;61637;47.760;-122.022;2023-07-13T06:52:01;101930.339;;;13.9;83.0
73422;BME280;61637;47.760;-122.022;2023-07-13T06:54:01;101930.339;;;13.9;83.0
73422;BME280;61637;47.760;-122.022;2023-07-13T06:56:01;101930.339;;;13.9;83.0
73422;BME280;61637;47.760;-122.022;2023-07-13T06:58:01;101930.339;;;13.9;84.0
73422;BME280;61637;47.760;-122.022;2023-07-13T07:00:01;101930.339;;;13.9;84.0
73422;BME280;61637;47.760;-122.022;2023-07-13T07:02:01;101930.339;;;13.9;84.0
73422;BME280;61637;47.760;-122.022;2023-07-13T07:04:01;101930.339;;;13.8;84.0
73422;BME280;61637;47.760;-122.022;2023-07-13T07:06:01;101930.339;;;13.8;84.0
73422;BME280;61637;47.760;-122.022;2023-07-13T07:08:01;101930.339;;;13.8;84.0
73422;BME280;61637;47.760;-122.022;2023-07-13T07:10:01;101930.339;;;13.8;84.0
73422;BME280;61637;47.760;-122.022;2023-07-13T07:12:01;101930.339;;;13.8;84.0
73422;BME280;61637;47.760;-122.022;2023-07-13T07:14:01;101930.339;;;13.7;84.0
73422;BME280;61637;47.760;-122.022;2023-07-13T07:16:01;101930.339;;;13.7;84.0
73422;BME280;61637;47.760;-122.022;2023-07-13T07:18:01;101930.339;;;13.7;84.0
73422;BME280;61637;47.760;-122.022;2023-07-13T07:20:01;101930.339;;;13.7;85.0
73422;BME280;61637;47.760;-122.022;2023-07-13T07:22:01;101930.339;;;13.7;84.0
73422;BME280;61637;47.760;-122.022;2023-07-13T07:24:01;101930.339;;;13.7;85.0
73422;BME280;61637;47.760;-122.022;2023-07-13T07:26:01;101930.339;;;13.6;85.0
73422;BME280;61637;47.760;-122.022;2023-07-13T07:28:01;101930.339;;;13.6;85.0
73422;BME280;61637;47.760;-122.022;2023-07-13T07:30:01;101930.339;;;13.6;85.0
73422;BME280;61637;47.760;-122.022;2023-07-13T07:32:01;101930.339;;;13.6;85.0
73422;BME280;61637;47.760;-122.022;2023-07-13T07:34:01;101930.339;;;13.6;84.0
73422;BME280;61637;47.760;-122.022;2023-07-13T07:36:01;101930.339;;;13.5;84.0
73422;BME280;61637;47.760;-122.022;2023-07-13T07:38:01;101930.339;;;13.5;84.0
73422;BME280;61637;47.760;-122.022;2023-07-13T07:40:01;101930.339;;;13.5;84.0
73422;BME280;61637;47.760;-122.022;2023-07-13T07:42:01;101930.339;;;13.4;84.0
73422;BME280;61637;47.760;-122.022;2023-07-13T07:44:01;101930.339;;;13.4;84.0
73422;BME280;61637;47.760;-122.022;2023-07-13T07:46:01;101930.339;;;13.4;84.0
73422;BME280;61637;47.760;-122.022;2023-07-13T07:48:01;101930.339;;;13.4;84.0
73422;BME280;61637;47.760;-122.022;2023-07-13T07:50:01;101930.339;;;13.3;84.0
73422;BME280;61637;47.760;-122.022;2023-07-13T07:52:01;101930.339;;;13.3;84.0
73422;BME280;61637;47.760;-122.022;2023-07-13T07:54:01;101930.339;;;13.3;84.0
73422;BME280;61637;47.760;-122.022;2023-07-13T07:56:01;101930.339;;;13.3;84.0
73422;BME280;61637;47.760;-122.022;2023-07-13T07:58:01;101930.339;;;13.3;84.0
73422;BME280;61637;47.760;-122.022;2023-07-13T08:00:01;101930.339;;;13.2;84.0
73422;BME280;61637;47.760;-122.022;2023-07-13T08:02:01;101930.339;;;13.3;84.0
73422;BME280;61637;47.760;-122.022;2023-07-13T08:04:01;101930.339;;;13.2;84.0
73422;BME280;61637;47.760;-122.022;2023-07-13T08:06:01;101930.339;;;13.2;84.0
73422;BME280;61637;47.760;-122.022;2023-07-13T08:08:01;101930.339;;;13.2;84.0
73422;BME280;61637;47.760;-122.022;2023-07-13T08:10:01;101930.339;;;13.2;84.0
73422;BME280;61637;47.760;-122.022;2023-07-13T08:12:01;101930.339;;;13.2;84.0
73422;BME280;61637;47.760;-122.022;2023-07-13T08:14:01;101930.339;;;13.2;84.0
73422;BME280;61637;47.760;-122.022;2023-07-13T08:16:01;101930.339;;;13.2;84.0
73422;BME280;61637;47.760;-122.022;2023-07-13T08:18:01;101930.339;;;13.2;84.0
73422;BME280;61637;47.760;-122.022;2023-07-13T08:20:01;101930.339;;;13.1;83.0
73422;BME280;61637;47.760;-122.022;2023-07-13T08:22:01;101930.339;;;13.1;84.0
73422;BME280;61637;47.760;-122.022;2023-07-13T08:24:01;101930.339;;;13.1;84.0
73422;BME280;61637;47.760;-122.022;2023-07-13T08:26:01;101930.339;;;13.1;84.0
73422;BME280;61637;47.760;-122.022;2023-07-13T08:28:01;101930.339;;;13.0;84.0
73422;BME280;61637;47.760;-122.022;2023-07-13T08:30:01;101930.339;;;13.0;84.0
73422;BME280;61637;47.760;-122.022;2023-07-13T08:32:01;101930.339;;;13.0;84.0
73422;BME280;61637;47.760;-122.022;2023-07-13T08:34:01;101930.339;;;12.9;84.0
73422;BME280;61637;47.760;-122.022;2023-07-13T08:36:01;101930.339;;;12.9;84.0
73422;BME280;61637;47.760;-122.022;2023-07-13T08:38:01;101930.339;;;12.9;84.0
73422;BME280;61637;47.760;-122.022;2023-07-13T08:40:01;101930.339;;;12.9;84.0
73422;BME280;61637;47.760;-122.022;2023-07-13T08:42:02;101930.339;;;12.8;84.0
73422;BME280;61637;47.760;-122.022;2023-07-13T08:44:01;101930.339;;;12.8;84.0
73422;BME280;61637;47.760;-122.022;2023-07-13T08:46:02;101930.339;;;12.8;84.0
73422;BME280;61637;47.760;-122.022;2023-07-13T08:48:01;101930.339;;;12.8;84.0
73422;BME280;61637;47.760;-122.022;2023-07-13T08:50:01;101930.339;;;12.8;84.0
73422;BME280;61637;47.760;-122.022;2023-07-13T08:52:02;101930.339;;;12.7;84.0
73422;BME280;61637;47.760;-122.022;2023-07-13T08:54:02;101930.339;;;12.7;84.0
73422;BME280;61637;47.760;-122.022;2023-07-13T08:56:01;101930.339;;;12.7;85.0
73422;BME280;61637;47.760;-122.022;2023-07-13T08:58:02;101930.339;;;12.6;85.0
73422;BME280;61637;47.760;-122.022;2023-07-13T09:00:01;101930.339;;;12.6;84.0
73422;BME280;61637;47.760;-122.022;2023-07-13T09:02:06;101930.339;;;12.6;85.0
73422;BME280;61637;47.760;-122.022;2023-07-13T09:04:03;101930.339;;;12.6;84.0
73422;BME280;61637;47.760;-122.022;2023-07-13T09:06:01;101930.339;;;12.4;85.0
73422;BME280;61637;47.760;-122.022;2023-07-13T09:08:04;101930.339;;;12.4;85.0
73422;BME280;61637;47.760;-122.022;2023-07-13T09:10:05;101930.339;;;12.4;85.0
73422;BME280;61637;47.760;-122.022;2023-07-13T09:12:01;101930.339;;;12.4;85.0
73422;BME280;61637;47.760;-122.022;2023-07-13T09:14:02;101930.339;;;12.4;85.0
73422;BME280;61637;47.760;-122.022;2023-07-13T09:16:01;101930.339;;;12.3;85.0
73422;BME280;61637;47.760;-122.022;2023-07-13T09:18:02;101930.339;;;12.3;85.0
73422;BME280;61637;47.760;-122.022;2023-07-13T09:20:02;101930.339;;;12.3;85.0
73422;BME280;61637;47.760;-122.022;2023-07-13T09:22:01;101930.339;;;12.3;85.0
73422;BME280;61637;47.760;-122.022;2023-07-13T09:24:21;101930.339;;;12.2;85.0
73422;BME280;61637;47.760;-122.022;2023-07-13T09:26:02;101930.339;;;12.2;85.0
73422;BME280;61637;47.760;-122.022;2023-07-13T09:28:02;101930.339;;;12.2;85.0
73422;BME280;61637;47.760;-122.022;2023-07-13T09:30:02;101930.339;;;12.2;85.0
73422;BME280;61637;47.760;-122.022;2023-07-13T09:32:01;101930.339;;;12.2;85.0
73422;BME280;61637;47.760;-122.022;2023-07-13T09:34:01;101930.339;;;12.1;85.0
73422;BME280;61637;47.760;-122.022;2023-07-13T09:36:01;101930.339;;;12.1;85.0
73422;BME280;61637;47.760;-122.022;2023-07-13T09:38:04;101930.339;;;12.1;85.0
73422;BME280;61637;47.760;-122.022;2023-07-13T09:40:01;101930.339;;;12.1;85.0
73422;BME280;61637;47.760;-122.022;2023-07-13T09:42:03;101930.339;;;12.0;85.0
73422;BME280;61637;47.760;-122.022;2023-07-13T09:44:01;101930.339;;;12.0;85.0
73422;BME280;61637;47.760;-122.022;2023-07-13T09:46:01;101930.339;;;11.9;85.0
73422;BME280;61637;47.760;-122.022;2023-07-13T09:48:04;101930.339;;;11.9;85.0
73422;BME280;61637;47.760;-122.022;2023-07-13T09:50:01;101930.339;;;11.9;86.0
73422;BME280;61637;47.760;-122.022;2023-07-13T09:52:02;101930.339;;;11.9;85.0
73422;BME280;61637;47.760;-122.022;2023-07-13T09:54:01;101930.339;;;11.9;85.0
73422;BME280;61637;47.760;-122.022;2023-07-13T09:56:01;101930.339;;;11.9;85.0
73422;BME280;61637;47.760;-122.022;2023-07-13T09:58:04;101930.339;;;11.9;85.0
73422;BME280;61637;47.760;-122.022;2023-07-13T10:00:01;101930.339;;;11.8;85.0
73422;BME280;61637;47.760;-122.022;2023-07-13T10:02:01;101930.339;;;11.8;85.0
73422;BME280;61637;47.760;-122.022;2023-07-13T10:04:01;101930.339;;;11.8;85.0
73422;BME280;61637;47.760;-122.022;2023-07-13T10:06:03;101930.339;;;11.8;85.0
73422;BME280;61637;47.760;-122.022;2023-07-13T10:08:01;101930.339;;;11.8;85.0
73422;BME280;61637;47.760;-122.022;2023-07-13T10:10:01;101930.339;;;11.8;85.0
73422;BME280;61637;47.760;-122.022;2023-07-13T10:12:01;101930.339;;;11.7;86.0